sensor_id;sensor_type;location;lat;lon;timestamp;P1;durP1;ratioP1;P2;durP2;ratioP2
4601;SDS011;2313;48.552;9.370;2022-08-03T00:01:37;3.27;;;2.37;;
4601;SDS011;2313;48.552;9.370;2022-08-03T00:04:05;3.40;;;2.40;;
4601;SDS011;2313;48.552;9.370;2022-08-03T00:06:31;5.60;;;2.83;;
4601;SDS011;2313;48.552;9.370;2022-08-03T00:08:57;2.83;;;2.53;;
4601;SDS011;2313;48.552;9.370;2022-08-03T00:11:23;2.77;;;2.27;;
4601;SDS011;2313;48.552;9.370;2022-08-03T00:13:49;3.30;;;2.43;;
4601;SDS011;2313;48.552;9.370;2022-08-03T00:16:14;4.40;;;2.70;;
4601;SDS011;2313;48.552;9.370;2022-08-03T00:18:40;3.90;;;2.40;;
4601;SDS011;2313;48.552;9.370;2022-08-03T00:21:06;4.00;;;2.50;;
4601;SDS011;2313;48.552;9.370;2022-08-03T00:23:32;3.60;;;2.50;;
4601;SDS011;2313;48.552;9.370;2022-08-03T00:25:58;2.40;;;1.83;;
4601;SDS011;2313;48.552;9.370;2022-08-03T00:28:23;2.10;;;2.00;;
4601;SDS011;2313;48.552;9.370;2022-08-03T00:30:49;3.10;;;2.50;;
4601;SDS011;2313;48.552;9.370;2022-08-03T00:33:15;3.00;;;2.00;;
4601;SDS011;2313;48.552;9.370;2022-08-03T00:35:41;3.60;;;2.57;;
4601;SDS011;2313;48.552;9.370;2022-08-03T00:38:07;5.93;;;2.67;;
4601;SDS011;2313;48.552;9.370;2022-08-03T00:40:33;2.60;;;2.37;;
4601;SDS011;2313;48.552;9.370;2022-08-03T00:42:59;2.83;;;2.40;;
4601;SDS011;2313;48.552;9.370;2022-08-03T00:45:27;5.70;;;2.33;;
4601;SDS011;2313;48.552;9.370;2022-08-03T00:47:54;2.17;;;2.07;;
4601;SDS011;2313;48.552;9.370;2022-08-03T00:50:21;5.03;;;2.87;;
4601;SDS011;2313;48.552;9.370;2022-08-03T00:52:48;2.43;;;2.23;;
4601;SDS011;2313;48.552;9.370;2022-08-03T00:55:19;3.20;;;2.30;;
4601;SDS011;2313;48.552;9.370;2022-08-03T00:57:45;2.50;;;2.30;;
4601;SDS011;2313;48.552;9.370;2022-08-03T01:00:11;3.30;;;2.67;;
4601;SDS011;2313;48.552;9.370;2022-08-03T01:02:39;2.53;;;2.20;;
4601;SDS011;2313;48.552;9.370;2022-08-03T01:05:05;2.90;;;2.70;;
4601;SDS011;2313;48.552;9.370;2022-08-03T01:18:16;2.60;;;2.40;;
4601;SDS011;2313;48.552;9.370;2022-08-03T01:20:47;8.67;;;3.10;;
4601;SDS011;2313;48.552;9.370;2022-08-03T01:31:09;4.00;;;2.87;;
4601;SDS011;2313;48.552;9.370;2022-08-03T01:33:46;2.70;;;2.37;;
4601;SDS011;2313;48.552;9.370;2022-08-03T01:36:17;2.60;;;2.40;;
4601;SDS011;2313;48.552;9.370;2022-08-03T01:38:50;3.93;;;2.50;;
4601;SDS011;2313;48.552;9.370;2022-08-03T01:41:30;2.70;;;2.50;;
4601;SDS011;2313;48.552;9.370;2022-08-03T01:43:58;2.37;;;2.17;;
4601;SDS011;2313;48.552;9.370;2022-08-03T01:46:26;11.13;;;2.60;;
4601;SDS011;2313;48.552;9.370;2022-08-03T01:48:53;3.43;;;2.10;;
4601;SDS011;2313;48.552;9.370;2022-08-03T01:51:20;3.50;;;2.50;;
4601;SDS011;2313;48.552;9.370;2022-08-03T01:53:49;4.27;;;2.30;;
4601;SDS011;2313;48.552;9.370;2022-08-03T01:56:19;5.33;;;3.20;;
4601;SDS011;2313;48.552;9.370;2022-08-03T01:58:47;5.57;;;3.53;;
4601;SDS011;2313;48.552;9.370;2022-08-03T02:01:15;4.23;;;3.30;;
4601;SDS011;2313;48.552;9.370;2022-08-03T02:03:42;3.60;;;3.30;;
4601;SDS011;2313;48.552;9.370;2022-08-03T02:06:09;3.30;;;3.00;;
4601;SDS011;2313;48.552;9.370;2022-08-03T02:08:38;4.70;;;2.77;;
4601;SDS011;2313;48.552;9.370;2022-08-03T02:11:05;3.50;;;2.80;;
4601;SDS011;2313;48.552;9.370;2022-08-03T02:13:32;3.33;;;3.03;;
4601;SDS011;2313;48.552;9.370;2022-08-03T02:16:00;3.07;;;2.47;;
4601;SDS011;2313;48.552;9.370;2022-08-03T02:18:28;2.80;;;2.60;;
4601;SDS011;2313;48.552;9.370;2022-08-03T02:20:55;3.27;;;2.97;;
4601;SDS011;2313;48.552;9.370;2022-08-03T02:23:22;3.20;;;2.90;;
4601;SDS011;2313;48.552;9.370;2022-08-03T02:25:50;5.17;;;2.70;;
4601;SDS011;2313;48.552;9.370;2022-08-03T02:28:21;3.00;;;2.10;;
4601;SDS011;2313;48.552;9.370;2022-08-03T02:30:54;6.87;;;2.57;;
4601;SDS011;2313;48.552;9.370;2022-08-03T02:33:24;2.90;;;2.70;;
4601;SDS011;2313;48.552;9.370;2022-08-03T02:35:52;3.27;;;2.53;;
4601;SDS011;2313;48.552;9.370;2022-08-03T02:38:19;4.43;;;2.60;;
4601;SDS011;2313;48.552;9.370;2022-08-03T02:40:48;3.03;;;2.80;;
4601;SDS011;2313;48.552;9.370;2022-08-03T02:43:17;7.00;;;2.77;;
4601;SDS011;2313;48.552;9.370;2022-08-03T02:45:46;2.53;;;2.33;;
4601;SDS011;2313;48.552;9.370;2022-08-03T02:48:17;6.90;;;1.97;;
4601;SDS011;2313;48.552;9.370;2022-08-03T02:50:47;4.50;;;2.20;;
4601;SDS011;2313;48.552;9.370;2022-08-03T02:53:17;2.83;;;2.63;;
4601;SDS011;2313;48.552;9.370;2022-08-03T02:55:45;2.50;;;2.07;;
4601;SDS011;2313;48.552;9.370;2022-08-03T02:58:12;2.00;;;1.90;;
4601;SDS011;2313;48.552;9.370;2022-08-03T03:00:38;1.83;;;1.73;;
4601;SDS011;2313;48.552;9.370;2022-08-03T03:03:05;2.20;;;1.97;;
4601;SDS011;2313;48.552;9.370;2022-08-03T03:05:31;2.80;;;2.50;;
4601;SDS011;2313;48.552;9.370;2022-08-03T03:08:00;3.07;;;2.73;;
4601;SDS011;2313;48.552;9.370;2022-08-03T03:10:26;5.00;;;3.40;;
4601;SDS011;2313;48.552;9.370;2022-08-03T03:12:54;2.80;;;2.60;;
4601;SDS011;2313;48.552;9.370;2022-08-03T03:15:22;4.40;;;3.50;;
4601;SDS011;2313;48.552;9.370;2022-08-03T03:17:51;3.60;;;2.50;;
4601;SDS011;2313;48.552;9.370;2022-08-03T03:20:19;2.60;;;2.40;;
4601;SDS011;2313;48.552;9.370;2022-08-03T03:22:46;4.70;;;2.83;;
4601;SDS011;2313;48.552;9.370;2022-08-03T03:25:14;2.17;;;2.00;;
4601;SDS011;2313;48.552;9.370;2022-08-03T03:27:40;2.33;;;2.20;;
4601;SDS011;2313;48.552;9.370;2022-08-03T03:30:06;7.77;;;3.07;;
4601;SDS011;2313;48.552;9.370;2022-08-03T03:32:33;4.77;;;2.30;;
4601;SDS011;2313;48.552;9.370;2022-08-03T03:35:00;4.23;;;2.27;;
4601;SDS011;2313;48.552;9.370;2022-08-03T03:37:28;2.87;;;2.63;;
4601;SDS011;2313;48.552;9.370;2022-08-03T03:39:54;2.90;;;2.70;;
4601;SDS011;2313;48.552;9.370;2022-08-03T03:42:20;2.70;;;2.50;;
4601;SDS011;2313;48.552;9.370;2022-08-03T03:44:46;3.63;;;2.10;;
4601;SDS011;2313;48.552;9.370;2022-08-03T03:47:12;2.67;;;2.33;;
4601;SDS011;2313;48.552;9.370;2022-08-03T03:49:38;2.63;;;2.07;;
4601;SDS011;2313;48.552;9.370;2022-08-03T03:52:04;3.30;;;2.70;;
4601;SDS011;2313;48.552;9.370;2022-08-03T03:54:40;3.50;;;3.20;;
4601;SDS011;2313;48.552;9.370;2022-08-03T03:57:06;4.30;;;3.80;;
4601;SDS011;2313;48.552;9.370;2022-08-03T03:59:32;4.90;;;3.60;;
4601;SDS011;2313;48.552;9.370;2022-08-03T04:02:01;4.80;;;4.30;;
4601;SDS011;2313;48.552;9.370;2022-08-03T04:04:27;4.30;;;3.57;;
4601;SDS011;2313;48.552;9.370;2022-08-03T04:07:11;5.10;;;4.60;;
4601;SDS011;2313;48.552;9.370;2022-08-03T04:09:55;4.03;;;3.73;;
4601;SDS011;2313;48.552;9.370;2022-08-03T04:12:40;3.97;;;3.60;;
4601;SDS011;2313;48.552;9.370;2022-08-03T04:15:07;4.53;;;3.50;;
4601;SDS011;2313;48.552;9.370;2022-08-03T04:17:34;8.00;;;6.00;;
4601;SDS011;2313;48.552;9.370;2022-08-03T04:20:00;3.60;;;3.10;;
4601;SDS011;2313;48.552;9.370;2022-08-03T04:22:28;4.47;;;3.80;;
4601;SDS011;2313;48.552;9.370;2022-08-03T04:25:04;4.47;;;4.00;;
4601;SDS011;2313;48.552;9.370;2022-08-03T04:27:35;4.23;;;3.30;;
4601;SDS011;2313;48.552;9.370;2022-08-03T04:30:03;4.97;;;3.67;;
4601;SDS011;2313;48.552;9.370;2022-08-03T04:32:30;4.93;;;3.30;;
4601;SDS011;2313;48.552;9.370;2022-08-03T04:34:57;5.93;;;3.47;;
4601;SDS011;2313;48.552;9.370;2022-08-03T04:40:38;2.73;;;2.53;;
4601;SDS011;2313;48.552;9.370;2022-08-03T04:42:59;3.17;;;2.87;;
4601;SDS011;2313;48.552;9.370;2022-08-03T04:45:26;3.50;;;3.20;;
4601;SDS011;2313;48.552;9.370;2022-08-03T04:47:54;2.83;;;2.50;;
4601;SDS011;2313;48.552;9.370;2022-08-03T04:50:21;3.50;;;2.80;;
4601;SDS011;2313;48.552;9.370;2022-08-03T04:52:47;8.30;;;2.40;;
4601;SDS011;2313;48.552;9.370;2022-08-03T04:55:25;3.90;;;3.07;;
4601;SDS011;2313;48.552;9.370;2022-08-03T04:57:52;6.67;;;3.17;;
4601;SDS011;2313;48.552;9.370;2022-08-03T05:00:18;3.47;;;3.17;;
4601;SDS011;2313;48.552;9.370;2022-08-03T05:02:44;5.33;;;3.43;;
4601;SDS011;2313;48.552;9.370;2022-08-03T05:05:09;4.23;;;3.67;;
4601;SDS011;2313;48.552;9.370;2022-08-03T05:07:36;5.90;;;3.30;;
4601;SDS011;2313;48.552;9.370;2022-08-03T05:10:05;3.50;;;3.07;;
4601;SDS011;2313;48.552;9.370;2022-08-03T05:12:33;4.80;;;2.67;;
4601;SDS011;2313;48.552;9.370;2022-08-03T05:14:59;3.07;;;2.87;;
4601;SDS011;2313;48.552;9.370;2022-08-03T05:17:25;5.10;;;2.87;;
4601;SDS011;2313;48.552;9.370;2022-08-03T05:19:50;4.03;;;3.30;;
4601;SDS011;2313;48.552;9.370;2022-08-03T05:22:16;3.43;;;3.13;;
4601;SDS011;2313;48.552;9.370;2022-08-03T05:24:42;3.87;;;2.87;;
4601;SDS011;2313;48.552;9.370;2022-08-03T05:27:07;2.97;;;2.77;;
4601;SDS011;2313;48.552;9.370;2022-08-03T05:29:33;4.57;;;2.77;;
4601;SDS011;2313;48.552;9.370;2022-08-03T05:31:59;4.50;;;2.60;;
4601;SDS011;2313;48.552;9.370;2022-08-03T05:34:25;4.70;;;3.20;;
4601;SDS011;2313;48.552;9.370;2022-08-03T05:36:51;16.33;;;12.27;;
4601;SDS011;2313;48.552;9.370;2022-08-03T05:39:17;7.10;;;3.80;;
4601;SDS011;2313;48.552;9.370;2022-08-03T05:41:42;5.97;;;3.50;;
4601;SDS011;2313;48.552;9.370;2022-08-03T05:44:08;5.70;;;3.20;;
4601;SDS011;2313;48.552;9.370;2022-08-03T05:46:34;4.60;;;3.67;;
4601;SDS011;2313;48.552;9.370;2022-08-03T05:48:59;5.97;;;4.23;;
4601;SDS011;2313;48.552;9.370;2022-08-03T05:51:25;3.83;;;3.40;;
4601;SDS011;2313;48.552;9.370;2022-08-03T05:53:51;7.03;;;3.70;;
4601;SDS011;2313;48.552;9.370;2022-08-03T05:56:20;7.63;;;3.60;;
4601;SDS011;2313;48.552;9.370;2022-08-03T05:58:47;5.20;;;3.47;;
4601;SDS011;2313;48.552;9.370;2022-08-03T06:01:13;4.33;;;3.60;;
4601;SDS011;2313;48.552;9.370;2022-08-03T06:03:40;4.00;;;3.60;;
4601;SDS011;2313;48.552;9.370;2022-08-03T06:06:06;3.33;;;3.10;;
4601;SDS011;2313;48.552;9.370;2022-08-03T06:08:31;4.10;;;3.40;;
4601;SDS011;2313;48.552;9.370;2022-08-03T06:10:58;4.10;;;2.90;;
4601;SDS011;2313;48.552;9.370;2022-08-03T06:13:23;4.90;;;3.50;;
4601;SDS011;2313;48.552;9.370;2022-08-03T06:15:49;3.97;;;3.00;;
4601;SDS011;2313;48.552;9.370;2022-08-03T06:18:14;4.33;;;3.30;;
4601;SDS011;2313;48.552;9.370;2022-08-03T06:20:40;4.50;;;4.10;;
4601;SDS011;2313;48.552;9.370;2022-08-03T06:23:06;6.00;;;4.57;;
4601;SDS011;2313;48.552;9.370;2022-08-03T06:25:31;4.60;;;3.77;;
4601;SDS011;2313;48.552;9.370;2022-08-03T06:27:57;6.10;;;3.87;;
4601;SDS011;2313;48.552;9.370;2022-08-03T06:30:23;4.77;;;4.33;;
4601;SDS011;2313;48.552;9.370;2022-08-03T06:32:49;5.30;;;3.60;;
4601;SDS011;2313;48.552;9.370;2022-08-03T06:35:15;4.33;;;3.77;;
4601;SDS011;2313;48.552;9.370;2022-08-03T06:37:44;4.40;;;3.40;;
4601;SDS011;2313;48.552;9.370;2022-08-03T06:40:11;4.07;;;3.70;;
4601;SDS011;2313;48.552;9.370;2022-08-03T06:42:37;4.00;;;3.70;;
4601;SDS011;2313;48.552;9.370;2022-08-03T06:45:03;3.20;;;2.90;;
4601;SDS011;2313;48.552;9.370;2022-08-03T06:47:30;3.67;;;3.40;;
4601;SDS011;2313;48.552;9.370;2022-08-03T06:49:56;3.90;;;3.53;;
4601;SDS011;2313;48.552;9.370;2022-08-03T06:52:21;5.67;;;3.20;;
4601;SDS011;2313;48.552;9.370;2022-08-03T06:54:47;4.93;;;3.30;;
4601;SDS011;2313;48.552;9.370;2022-08-03T06:57:12;3.20;;;2.90;;
4601;SDS011;2313;48.552;9.370;2022-08-03T06:59:40;3.20;;;3.00;;
4601;SDS011;2313;48.552;9.370;2022-08-03T07:02:06;4.97;;;3.00;;
4601;SDS011;2313;48.552;9.370;2022-08-03T07:04:33;3.07;;;2.80;;
4601;SDS011;2313;48.552;9.370;2022-08-03T07:06:59;2.70;;;2.50;;
4601;SDS011;2313;48.552;9.370;2022-08-03T07:09:24;4.10;;;3.33;;
4601;SDS011;2313;48.552;9.370;2022-08-03T07:11:50;3.73;;;3.30;;
4601;SDS011;2313;48.552;9.370;2022-08-03T07:14:16;6.47;;;3.10;;
4601;SDS011;2313;48.552;9.370;2022-08-03T07:16:42;3.40;;;3.10;;
4601;SDS011;2313;48.552;9.370;2022-08-03T07:19:08;3.60;;;2.80;;
4601;SDS011;2313;48.552;9.370;2022-08-03T07:21:33;5.90;;;2.37;;
4601;SDS011;2313;48.552;9.370;2022-08-03T07:23:59;3.27;;;2.90;;
4601;SDS011;2313;48.552;9.370;2022-08-03T07:26:24;4.90;;;2.80;;
4601;SDS011;2313;48.552;9.370;2022-08-03T07:28:50;3.60;;;2.93;;
4601;SDS011;2313;48.552;9.370;2022-08-03T07:31:16;8.60;;;3.20;;
4601;SDS011;2313;48.552;9.370;2022-08-03T07:33:41;5.37;;;4.27;;
4601;SDS011;2313;48.552;9.370;2022-08-03T07:36:10;5.50;;;3.00;;
4601;SDS011;2313;48.552;9.370;2022-08-03T07:38:35;6.33;;;2.90;;
4601;SDS011;2313;48.552;9.370;2022-08-03T07:41:01;6.40;;;3.30;;
4601;SDS011;2313;48.552;9.370;2022-08-03T07:43:27;4.40;;;2.90;;
4601;SDS011;2313;48.552;9.370;2022-08-03T07:45:53;4.87;;;2.80;;
4601;SDS011;2313;48.552;9.370;2022-08-03T07:48:18;2.90;;;2.40;;
4601;SDS011;2313;48.552;9.370;2022-08-03T07:50:44;2.60;;;2.40;;
4601;SDS011;2313;48.552;9.370;2022-08-03T07:53:10;3.70;;;2.60;;
4601;SDS011;2313;48.552;9.370;2022-08-03T07:55:36;4.30;;;2.67;;
4601;SDS011;2313;48.552;9.370;2022-08-03T07:58:06;3.40;;;2.33;;
4601;SDS011;2313;48.552;9.370;2022-08-03T08:00:34;8.20;;;3.30;;
4601;SDS011;2313;48.552;9.370;2022-08-03T08:03:00;3.60;;;2.20;;
4601;SDS011;2313;48.552;9.370;2022-08-03T08:05:26;3.10;;;2.43;;
4601;SDS011;2313;48.552;9.370;2022-08-03T08:07:52;3.23;;;1.97;;
4601;SDS011;2313;48.552;9.370;2022-08-03T08:10:18;3.60;;;2.40;;
4601;SDS011;2313;48.552;9.370;2022-08-03T08:12:44;3.57;;;2.00;;
4601;SDS011;2313;48.552;9.370;2022-08-03T08:15:10;4.10;;;2.03;;
4601;SDS011;2313;48.552;9.370;2022-08-03T08:20:19;3.63;;;2.20;;
4601;SDS011;2313;48.552;9.370;2022-08-03T08:22:46;2.40;;;2.20;;
4601;SDS011;2313;48.552;9.370;2022-08-03T08:25:12;2.20;;;1.97;;
4601;SDS011;2313;48.552;9.370;2022-08-03T08:27:45;2.50;;;2.30;;
4601;SDS011;2313;48.552;9.370;2022-08-03T08:30:12;2.00;;;1.90;;
4601;SDS011;2313;48.552;9.370;2022-08-03T08:32:39;2.23;;;2.10;;
4601;SDS011;2313;48.552;9.370;2022-08-03T08:35:06;4.10;;;2.73;;
4601;SDS011;2313;48.552;9.370;2022-08-03T08:37:32;2.17;;;1.93;;
4601;SDS011;2313;48.552;9.370;2022-08-03T08:39:59;2.00;;;1.90;;
4601;SDS011;2313;48.552;9.370;2022-08-03T08:42:25;3.77;;;2.03;;
4601;SDS011;2313;48.552;9.370;2022-08-03T08:44:51;4.13;;;2.30;;
4601;SDS011;2313;48.552;9.370;2022-08-03T08:47:22;2.07;;;1.80;;
4601;SDS011;2313;48.552;9.370;2022-08-03T08:49:53;2.23;;;2.03;;
4601;SDS011;2313;48.552;9.370;2022-08-03T08:52:24;5.10;;;2.10;;
4601;SDS011;2313;48.552;9.370;2022-08-03T08:54:52;2.87;;;2.00;;
4601;SDS011;2313;48.552;9.370;2022-08-03T08:57:28;4.90;;;2.43;;
4601;SDS011;2313;48.552;9.370;2022-08-03T08:59:55;4.27;;;2.63;;
4601;SDS011;2313;48.552;9.370;2022-08-03T09:02:22;4.07;;;2.07;;
4601;SDS011;2313;48.552;9.370;2022-08-03T09:04:48;4.07;;;2.10;;
4601;SDS011;2313;48.552;9.370;2022-08-03T09:07:15;2.23;;;2.07;;
4601;SDS011;2313;48.552;9.370;2022-08-03T09:09:41;2.67;;;2.47;;
4601;SDS011;2313;48.552;9.370;2022-08-03T09:12:07;6.63;;;2.87;;
4601;SDS011;2313;48.552;9.370;2022-08-03T09:14:33;3.40;;;2.40;;
4601;SDS011;2313;48.552;9.370;2022-08-03T09:16:59;4.00;;;2.43;;
4601;SDS011;2313;48.552;9.370;2022-08-03T09:19:27;2.57;;;2.33;;
4601;SDS011;2313;48.552;9.370;2022-08-03T09:22:27;3.10;;;2.17;;
4601;SDS011;2313;48.552;9.370;2022-08-03T09:27:25;3.43;;;2.40;;
4601;SDS011;2313;48.552;9.370;2022-08-03T09:29:51;2.20;;;2.10;;
4601;SDS011;2313;48.552;9.370;2022-08-03T09:32:18;2.37;;;2.20;;
4601;SDS011;2313;48.552;9.370;2022-08-03T09:34:46;2.17;;;2.03;;
4601;SDS011;2313;48.552;9.370;2022-08-03T09:37:13;4.30;;;2.50;;
4601;SDS011;2313;48.552;9.370;2022-08-03T09:39:42;2.43;;;1.87;;
4601;SDS011;2313;48.552;9.370;2022-08-03T09:42:18;5.20;;;2.30;;
4601;SDS011;2313;48.552;9.370;2022-08-03T09:44:47;3.43;;;2.40;;
4601;SDS011;2313;48.552;9.370;2022-08-03T09:47:15;2.40;;;2.20;;
4601;SDS011;2313;48.552;9.370;2022-08-03T09:49:56;2.33;;;2.13;;
4601;SDS011;2313;48.552;9.370;2022-08-03T09:52:36;2.30;;;2.10;;
4601;SDS011;2313;48.552;9.370;2022-08-03T09:55:10;3.70;;;2.07;;
4601;SDS011;2313;48.552;9.370;2022-08-03T09:57:38;2.70;;;2.50;;
4601;SDS011;2313;48.552;9.370;2022-08-03T10:00:14;6.80;;;2.27;;
4601;SDS011;2313;48.552;9.370;2022-08-03T10:02:42;3.93;;;2.70;;
4601;SDS011;2313;48.552;9.370;2022-08-03T10:05:10;2.40;;;2.00;;
4601;SDS011;2313;48.552;9.370;2022-08-03T10:07:49;3.17;;;2.87;;
4601;SDS011;2313;48.552;9.370;2022-08-03T10:10:15;2.30;;;2.10;;
4601;SDS011;2313;48.552;9.370;2022-08-03T10:12:42;2.73;;;2.33;;
4601;SDS011;2313;48.552;9.370;2022-08-03T10:15:08;2.57;;;2.33;;
4601;SDS011;2313;48.552;9.370;2022-08-03T10:17:35;4.70;;;2.70;;
4601;SDS011;2313;48.552;9.370;2022-08-03T10:20:02;2.60;;;2.40;;
4601;SDS011;2313;48.552;9.370;2022-08-03T10:22:33;5.27;;;2.70;;
4601;SDS011;2313;48.552;9.370;2022-08-03T10:25:05;3.10;;;2.80;;
4601;SDS011;2313;48.552;9.370;2022-08-03T10:27:37;3.80;;;2.27;;
4601;SDS011;2313;48.552;9.370;2022-08-03T10:30:04;2.90;;;2.10;;
4601;SDS011;2313;48.552;9.370;2022-08-03T10:32:47;3.97;;;2.10;;
4601;SDS011;2313;48.552;9.370;2022-08-03T10:35:28;2.33;;;2.07;;
4601;SDS011;2313;48.552;9.370;2022-08-03T10:37:58;2.03;;;1.93;;
4601;SDS011;2313;48.552;9.370;2022-08-03T10:40:32;2.00;;;1.80;;
4601;SDS011;2313;48.552;9.370;2022-08-03T10:43:06;2.07;;;1.97;;
4601;SDS011;2313;48.552;9.370;2022-08-03T10:45:40;2.17;;;1.50;;
4601;SDS011;2313;48.552;9.370;2022-08-03T10:48:07;2.60;;;2.07;;
4601;SDS011;2313;48.552;9.370;2022-08-03T10:50:34;2.30;;;2.10;;
4601;SDS011;2313;48.552;9.370;2022-08-03T10:53:01;2.40;;;1.80;;
4601;SDS011;2313;48.552;9.370;2022-08-03T10:55:35;1.90;;;1.80;;
4601;SDS011;2313;48.552;9.370;2022-08-03T11:01:06;2.00;;;1.90;;
4601;SDS011;2313;48.552;9.370;2022-08-03T11:03:33;3.43;;;2.07;;
4601;SDS011;2313;48.552;9.370;2022-08-03T11:06:20;2.10;;;1.87;;
4601;SDS011;2313;48.552;9.370;2022-08-03T11:08:49;4.93;;;1.67;;
4601;SDS011;2313;48.552;9.370;2022-08-03T11:11:41;2.50;;;1.87;;
4601;SDS011;2313;48.552;9.370;2022-08-03T11:16:45;2.73;;;1.87;;
4601;SDS011;2313;48.552;9.370;2022-08-03T11:19:17;3.53;;;1.67;;
4601;SDS011;2313;48.552;9.370;2022-08-03T11:35:08;2.07;;;1.30;;
4601;SDS011;2313;48.552;9.370;2022-08-03T11:38:00;3.67;;;1.83;;
4601;SDS011;2313;48.552;9.370;2022-08-03T11:46:04;5.50;;;1.67;;
4601;SDS011;2313;48.552;9.370;2022-08-03T11:48:34;3.20;;;1.67;;
4601;SDS011;2313;48.552;9.370;2022-08-03T11:51:17;3.07;;;1.83;;
4601;SDS011;2313;48.552;9.370;2022-08-03T11:53:57;2.77;;;1.47;;
4601;SDS011;2313;48.552;9.370;2022-08-03T11:56:24;5.63;;;1.73;;
4601;SDS011;2313;48.552;9.370;2022-08-03T11:58:51;2.77;;;1.60;;
4601;SDS011;2313;48.552;9.370;2022-08-03T12:01:19;1.63;;;1.53;;
4601;SDS011;2313;48.552;9.370;2022-08-03T12:03:46;3.73;;;1.70;;
4601;SDS011;2313;48.552;9.370;2022-08-03T12:06:13;2.00;;;1.90;;
4601;SDS011;2313;48.552;9.370;2022-08-03T12:08:41;3.00;;;1.67;;
4601;SDS011;2313;48.552;9.370;2022-08-03T12:11:08;2.17;;;2.07;;
4601;SDS011;2313;48.552;9.370;2022-08-03T12:13:45;1.60;;;1.50;;
4601;SDS011;2313;48.552;9.370;2022-08-03T12:16:20;2.40;;;1.63;;
4601;SDS011;2313;48.552;9.370;2022-08-03T12:18:57;1.73;;;1.63;;
4601;SDS011;2313;48.552;9.370;2022-08-03T12:21:24;2.60;;;1.53;;
4601;SDS011;2313;48.552;9.370;2022-08-03T12:23:55;2.60;;;1.77;;
4601;SDS011;2313;48.552;9.370;2022-08-03T12:26:24;2.07;;;1.60;;
4601;SDS011;2313;48.552;9.370;2022-08-03T12:28:50;4.67;;;1.67;;
4601;SDS011;2313;48.552;9.370;2022-08-03T12:31:15;1.90;;;1.80;;
4601;SDS011;2313;48.552;9.370;2022-08-03T12:33:57;1.50;;;1.40;;
4601;SDS011;2313;48.552;9.370;2022-08-03T12:36:28;1.60;;;1.50;;
4601;SDS011;2313;48.552;9.370;2022-08-03T12:38:56;2.50;;;1.83;;
4601;SDS011;2313;48.552;9.370;2022-08-03T12:41:31;2.70;;;1.60;;
4601;SDS011;2313;48.552;9.370;2022-08-03T12:43:59;3.40;;;1.60;;
4601;SDS011;2313;48.552;9.370;2022-08-03T12:46:34;4.13;;;1.83;;
4601;SDS011;2313;48.552;9.370;2022-08-03T12:49:14;5.30;;;1.83;;
4601;SDS011;2313;48.552;9.370;2022-08-03T12:54:08;5.60;;;1.70;;
4601;SDS011;2313;48.552;9.370;2022-08-03T12:56:56;1.80;;;1.70;;
4601;SDS011;2313;48.552;9.370;2022-08-03T12:59:28;2.03;;;1.57;;
4601;SDS011;2313;48.552;9.370;2022-08-03T13:01:55;1.83;;;1.73;;
4601;SDS011;2313;48.552;9.370;2022-08-03T13:04:27;2.03;;;1.93;;
4601;SDS011;2313;48.552;9.370;2022-08-03T13:07:05;1.60;;;1.50;;
4601;SDS011;2313;48.552;9.370;2022-08-03T13:12:15;1.73;;;1.63;;
4601;SDS011;2313;48.552;9.370;2022-08-03T13:14:42;2.00;;;1.90;;
4601;SDS011;2313;48.552;9.370;2022-08-03T13:17:09;2.30;;;2.10;;
4601;SDS011;2313;48.552;9.370;2022-08-03T13:19:36;2.10;;;1.67;;
4601;SDS011;2313;48.552;9.370;2022-08-03T13:24:46;1.77;;;1.67;;
4601;SDS011;2313;48.552;9.370;2022-08-03T13:27:13;4.47;;;2.07;;
4601;SDS011;2313;48.552;9.370;2022-08-03T13:29:39;1.90;;;1.77;;
4601;SDS011;2313;48.552;9.370;2022-08-03T13:32:07;2.70;;;1.70;;
4601;SDS011;2313;48.552;9.370;2022-08-03T13:34:33;2.97;;;1.70;;
4601;SDS011;2313;48.552;9.370;2022-08-03T13:36:58;3.33;;;1.60;;
4601;SDS011;2313;48.552;9.370;2022-08-03T13:39:24;1.80;;;1.70;;
4601;SDS011;2313;48.552;9.370;2022-08-03T13:41:50;2.33;;;1.57;;
4601;SDS011;2313;48.552;9.370;2022-08-03T13:44:16;3.50;;;1.53;;
4601;SDS011;2313;48.552;9.370;2022-08-03T13:46:43;2.50;;;1.70;;
4601;SDS011;2313;48.552;9.370;2022-08-03T13:49:09;2.00;;;1.90;;
4601;SDS011;2313;48.552;9.370;2022-08-03T13:51:35;1.63;;;1.53;;
4601;SDS011;2313;48.552;9.370;2022-08-03T13:54:00;1.77;;;1.67;;
4601;SDS011;2313;48.552;9.370;2022-08-03T13:56:26;3.33;;;1.80;;
4601;SDS011;2313;48.552;9.370;2022-08-03T13:58:53;2.50;;;1.50;;
4601;SDS011;2313;48.552;9.370;2022-08-03T14:01:19;2.33;;;1.50;;
4601;SDS011;2313;48.552;9.370;2022-08-03T14:03:45;1.63;;;1.53;;
4601;SDS011;2313;48.552;9.370;2022-08-03T14:06:22;1.60;;;1.50;;
4601;SDS011;2313;48.552;9.370;2022-08-03T14:08:48;1.90;;;1.80;;
4601;SDS011;2313;48.552;9.370;2022-08-03T14:11:15;1.70;;;1.60;;
4601;SDS011;2313;48.552;9.370;2022-08-03T14:13:41;1.90;;;1.80;;
4601;SDS011;2313;48.552;9.370;2022-08-03T14:16:07;1.93;;;1.83;;
4601;SDS011;2313;48.552;9.370;2022-08-03T14:18:33;3.33;;;1.90;;
4601;SDS011;2313;48.552;9.370;2022-08-03T14:21:00;1.90;;;1.80;;
4601;SDS011;2313;48.552;9.370;2022-08-03T14:23:27;1.80;;;1.70;;
4601;SDS011;2313;48.552;9.370;2022-08-03T14:25:52;1.60;;;1.50;;
4601;SDS011;2313;48.552;9.370;2022-08-03T14:28:22;4.83;;;1.80;;
4601;SDS011;2313;48.552;9.370;2022-08-03T14:30:51;1.40;;;1.30;;
4601;SDS011;2313;48.552;9.370;2022-08-03T14:33:18;4.10;;;2.00;;
4601;SDS011;2313;48.552;9.370;2022-08-03T14:35:45;4.20;;;1.43;;
4601;SDS011;2313;48.552;9.370;2022-08-03T14:38:10;2.50;;;1.30;;
4601;SDS011;2313;48.552;9.370;2022-08-03T14:40:36;4.63;;;1.80;;
4601;SDS011;2313;48.552;9.370;2022-08-03T14:43:02;1.77;;;1.67;;
4601;SDS011;2313;48.552;9.370;2022-08-03T14:45:27;1.73;;;1.63;;
4601;SDS011;2313;48.552;9.370;2022-08-03T14:47:53;3.47;;;1.63;;
4601;SDS011;2313;48.552;9.370;2022-08-03T14:50:19;2.00;;;1.90;;
4601;SDS011;2313;48.552;9.370;2022-08-03T14:52:46;3.97;;;1.43;;
4601;SDS011;2313;48.552;9.370;2022-08-03T14:55:11;1.93;;;1.70;;
4601;SDS011;2313;48.552;9.370;2022-08-03T14:57:37;2.70;;;1.50;;
4601;SDS011;2313;48.552;9.370;2022-08-03T15:00:03;5.43;;;1.40;;
4601;SDS011;2313;48.552;9.370;2022-08-03T15:02:29;1.87;;;1.73;;
4601;SDS011;2313;48.552;9.370;2022-08-03T15:04:55;4.20;;;2.13;;
4601;SDS011;2313;48.552;9.370;2022-08-03T15:07:21;1.67;;;1.43;;
4601;SDS011;2313;48.552;9.370;2022-08-03T15:09:46;1.77;;;1.63;;
4601;SDS011;2313;48.552;9.370;2022-08-03T15:12:12;1.80;;;1.70;;
4601;SDS011;2313;48.552;9.370;2022-08-03T15:14:38;2.30;;;1.50;;
4601;SDS011;2313;48.552;9.370;2022-08-03T15:17:03;2.67;;;1.50;;
4601;SDS011;2313;48.552;9.370;2022-08-03T15:19:30;1.73;;;1.63;;
4601;SDS011;2313;48.552;9.370;2022-08-03T15:21:55;1.80;;;1.70;;
4601;SDS011;2313;48.552;9.370;2022-08-03T15:24:21;1.67;;;1.40;;
4601;SDS011;2313;48.552;9.370;2022-08-03T15:26:47;6.83;;;1.70;;
4601;SDS011;2313;48.552;9.370;2022-08-03T15:29:12;4.50;;;1.80;;
4601;SDS011;2313;48.552;9.370;2022-08-03T15:31:38;2.23;;;1.77;;
4601;SDS011;2313;48.552;9.370;2022-08-03T15:34:04;2.30;;;2.00;;
4601;SDS011;2313;48.552;9.370;2022-08-03T15:36:30;3.20;;;1.53;;
4601;SDS011;2313;48.552;9.370;2022-08-03T15:38:56;8.13;;;1.83;;
4601;SDS011;2313;48.552;9.370;2022-08-03T15:41:22;1.90;;;1.80;;
4601;SDS011;2313;48.552;9.370;2022-08-03T15:43:48;2.30;;;1.77;;
4601;SDS011;2313;48.552;9.370;2022-08-03T15:46:16;3.90;;;2.93;;
4601;SDS011;2313;48.552;9.370;2022-08-03T15:48:43;1.53;;;1.43;;
4601;SDS011;2313;48.552;9.370;2022-08-03T15:51:08;2.40;;;1.70;;
4601;SDS011;2313;48.552;9.370;2022-08-03T15:53:34;2.47;;;1.97;;
4601;SDS011;2313;48.552;9.370;2022-08-03T15:56:00;1.63;;;1.53;;
4601;SDS011;2313;48.552;9.370;2022-08-03T15:58:27;6.47;;;1.73;;
4601;SDS011;2313;48.552;9.370;2022-08-03T16:00:54;1.90;;;1.70;;
4601;SDS011;2313;48.552;9.370;2022-08-03T16:03:23;2.97;;;1.67;;
4601;SDS011;2313;48.552;9.370;2022-08-03T16:05:49;2.37;;;1.73;;
4601;SDS011;2313;48.552;9.370;2022-08-03T16:08:15;1.70;;;1.60;;
4601;SDS011;2313;48.552;9.370;2022-08-03T16:10:41;1.77;;;1.67;;
4601;SDS011;2313;48.552;9.370;2022-08-03T16:13:07;1.70;;;1.60;;
4601;SDS011;2313;48.552;9.370;2022-08-03T16:15:33;1.60;;;1.40;;
4601;SDS011;2313;48.552;9.370;2022-08-03T16:17:58;2.00;;;1.40;;
4601;SDS011;2313;48.552;9.370;2022-08-03T16:20:24;1.33;;;1.10;;